createdAt,value
2023-05-21T00:00:11.638Z,0.00
2023-05-21T00:01:11.632Z,0.00
2023-05-21T00:02:11.646Z,0.00
2023-05-21T00:03:11.703Z,0.00
2023-05-21T00:04:11.720Z,0.00
2023-05-21T00:05:14.375Z,0.00
2023-05-21T00:06:12.674Z,0.00
2023-05-21T00:07:11.582Z,0.00
2023-05-21T00:08:11.558Z,0.00
2023-05-21T00:09:11.584Z,0.00
2023-05-21T00:10:11.610Z,0.00
2023-05-21T00:11:11.571Z,0.00
2023-05-21T00:12:11.532Z,0.00
2023-05-21T00:13:11.515Z,0.00
2023-05-21T00:14:11.558Z,0.00
2023-05-21T00:15:11.527Z,0.00
2023-05-21T00:16:11.631Z,0.00
2023-05-21T00:17:11.500Z,0.00
2023-05-21T00:18:11.557Z,0.00
2023-05-21T00:19:11.505Z,0.00
2023-05-21T00:20:11.485Z,0.00
2023-05-21T00:21:11.490Z,0.00
2023-05-21T00:22:11.444Z,0.00
2023-05-21T00:23:11.449Z,0.00
2023-05-21T00:24:11.470Z,0.00
2023-05-21T00:25:11.449Z,0.00
2023-05-21T00:26:11.457Z,0.00
2023-05-21T00:27:11.441Z,0.00
2023-05-21T00:28:11.401Z,0.00
2023-05-21T00:29:11.406Z,0.00
2023-05-21T00:30:11.429Z,0.00
2023-05-21T00:31:11.441Z,0.00
2023-05-21T00:32:11.426Z,0.00
2023-05-21T00:33:11.405Z,0.00
2023-05-21T00:34:11.356Z,0.00
2023-05-21T00:35:11.397Z,0.00
2023-05-21T00:36:11.380Z,0.00
2023-05-21T00:37:11.358Z,0.00
2023-05-21T00:38:11.311Z,0.00
2023-05-21T00:39:11.330Z,0.00
2023-05-21T00:40:11.341Z,0.00
2023-05-21T00:41:11.281Z,0.00
2023-05-21T00:42:11.310Z,0.00
2023-05-21T00:43:11.304Z,0.00
2023-05-21T00:44:11.274Z,0.00
2023-05-21T00:45:11.309Z,0.00
2023-05-21T00:46:11.362Z,0.00
2023-05-21T00:47:11.290Z,0.00
2023-05-21T00:48:11.222Z,0.00
2023-05-21T00:49:11.284Z,0.00
2023-05-21T00:50:11.227Z,0.00
2023-05-21T00:51:11.246Z,0.00
2023-05-21T00:52:11.224Z,0.00
2023-05-21T00:53:11.187Z,0.00
2023-05-21T00:54:11.224Z,0.00
2023-05-21T00:55:11.215Z,0.00
2023-05-21T00:56:11.174Z,0.00
2023-05-21T00:57:11.190Z,0.00
2023-05-21T00:58:11.151Z,0.00
2023-05-21T00:59:11.161Z,0.00
2023-05-21T01:00:11.259Z,0.00
2023-05-21T01:01:11.270Z,0.00
2023-05-21T01:02:11.249Z,0.00
2023-05-21T01:03:11.334Z,0.00
2023-05-21T01:04:11.110Z,0.00
2023-05-21T01:05:11.127Z,0.00
2023-05-21T01:06:11.089Z,0.00
2023-05-21T01:07:11.096Z,0.00
2023-05-21T01:08:11.101Z,0.00
2023-05-21T01:09:11.111Z,0.00
2023-05-21T01:10:11.100Z,0.00
2023-05-21T01:11:11.064Z,0.00
2023-05-21T01:12:11.066Z,0.00
2023-05-21T01:13:11.100Z,0.00
2023-05-21T01:14:11.073Z,0.00
2023-05-21T01:15:11.041Z,0.00
2023-05-21T01:16:11.030Z,0.00
2023-05-21T01:17:11.205Z,0.00
2023-05-21T01:18:11.026Z,0.00
2023-05-21T01:19:11.151Z,0.00
2023-05-21T01:20:43.467Z,0.00
2023-05-21T01:21:10.966Z,0.00
2023-05-21T01:22:43.522Z,0.00
2023-05-21T01:23:43.397Z,0.00
2023-05-21T01:24:10.937Z,0.00
2023-05-21T01:25:43.572Z,0.00
2023-05-21T01:26:42.894Z,0.00
2023-05-21T01:27:10.941Z,0.00
2023-05-21T01:28:10.920Z,0.00
2023-05-21T01:29:10.925Z,0.00
2023-05-21T01:30:10.930Z,0.00
2023-05-21T01:31:10.882Z,0.00
2023-05-21T01:32:10.880Z,0.00
2023-05-21T01:33:11.099Z,0.00
2023-05-21T01:34:10.966Z,0.00
2023-05-21T01:35:10.865Z,0.00
2023-05-21T01:36:11.858Z,0.00
2023-05-21T01:37:10.907Z,0.00
2023-05-21T01:38:10.821Z,0.00
2023-05-21T01:39:10.889Z,0.00
2023-05-21T01:40:11.872Z,0.00
2023-05-21T01:41:10.884Z,0.00
2023-05-21T01:42:10.814Z,0.00
2023-05-21T01:43:10.797Z,0.00
2023-05-21T01:44:10.800Z,0.00
2023-05-21T01:45:10.827Z,0.00
2023-05-21T01:46:10.829Z,0.00
2023-05-21T01:47:10.766Z,0.00
2023-05-21T01:48:10.788Z,0.00
2023-05-21T01:49:10.776Z,0.00
2023-05-21T01:50:10.805Z,0.00
2023-05-21T01:51:10.792Z,0.00
2023-05-21T01:52:10.766Z,0.00
2023-05-21T01:53:10.730Z,0.00
2023-05-21T01:54:10.722Z,0.00
2023-05-21T01:55:10.706Z,0.00
2023-05-21T01:56:10.734Z,0.00
2023-05-21T01:57:10.727Z,0.00
2023-05-21T01:58:10.697Z,0.00
2023-05-21T01:59:10.727Z,0.00
2023-05-21T02:00:10.701Z,0.00
2023-05-21T02:01:11.250Z,0.00
2023-05-21T02:02:10.862Z,0.00
2023-05-21T02:03:10.804Z,0.00
2023-05-21T02:04:10.680Z,0.00
2023-05-21T02:05:10.616Z,0.00
2023-05-21T02:06:10.650Z,0.00
2023-05-21T02:07:10.625Z,0.00
2023-05-21T02:08:10.620Z,0.00
2023-05-21T02:09:10.592Z,0.00
2023-05-21T02:10:10.607Z,0.00
2023-05-21T02:11:10.628Z,0.00
2023-05-21T02:12:10.578Z,0.00
2023-05-21T02:13:10.562Z,0.00
2023-05-21T02:14:10.584Z,0.00
2023-05-21T02:15:10.546Z,0.00
2023-05-21T02:16:10.598Z,0.00
2023-05-21T02:17:10.530Z,0.00
2023-05-21T02:18:10.590Z,0.00
2023-05-21T02:19:10.631Z,0.00
2023-05-21T02:20:10.574Z,0.00
2023-05-21T02:21:10.511Z,0.00
2023-05-21T02:22:10.530Z,0.00
2023-05-21T02:23:10.495Z,0.00
2023-05-21T02:24:10.471Z,0.00
2023-05-21T02:25:10.490Z,0.00
2023-05-21T02:26:10.516Z,0.00
2023-05-21T02:27:10.484Z,0.00
2023-05-21T02:28:10.502Z,0.00
2023-05-21T02:29:10.466Z,0.00
2023-05-21T02:30:10.446Z,0.00
2023-05-21T02:31:10.450Z,0.00
2023-05-21T02:32:10.467Z,0.00
2023-05-21T02:33:10.447Z,0.00
2023-05-21T02:34:10.501Z,0.00
2023-05-21T02:35:10.463Z,0.00
2023-05-21T02:36:11.241Z,0.00
2023-05-21T02:37:10.630Z,0.00
2023-05-21T02:38:10.416Z,0.00
2023-05-21T02:39:10.459Z,0.00
2023-05-21T02:40:10.430Z,0.00
2023-05-21T02:41:11.259Z,0.00
2023-05-21T02:42:10.432Z,0.00
2023-05-21T02:43:10.392Z,0.00
2023-05-21T02:44:10.416Z,0.00
2023-05-21T02:45:10.491Z,0.00
2023-05-21T02:46:10.404Z,0.00
2023-05-21T02:47:10.421Z,0.00
2023-05-21T02:48:10.372Z,0.00
2023-05-21T02:49:10.303Z,0.00
2023-05-21T02:50:10.350Z,0.00
2023-05-21T02:51:10.282Z,0.00
2023-05-21T02:52:10.318Z,0.00
2023-05-21T02:53:10.289Z,0.00
2023-05-21T02:54:10.273Z,0.00
2023-05-21T02:55:10.266Z,0.00
2023-05-21T02:56:10.302Z,0.00
2023-05-21T02:57:10.249Z,0.00
2023-05-21T02:58:11.265Z,0.00
2023-05-21T02:59:10.202Z,0.00
2023-05-21T03:00:10.208Z,0.00
2023-05-21T03:01:10.317Z,0.00
2023-05-21T03:02:10.232Z,0.00
2023-05-21T03:03:10.271Z,0.00
2023-05-21T03:04:10.225Z,0.00
2023-05-21T03:05:10.208Z,0.00
2023-05-21T03:06:10.144Z,0.00
2023-05-21T03:07:10.197Z,0.00
2023-05-21T03:08:10.167Z,0.00
2023-05-21T03:09:10.736Z,0.00
2023-05-21T03:10:10.117Z,0.00
2023-05-21T03:11:10.152Z,0.00
2023-05-21T03:12:10.100Z,0.00
2023-05-21T03:13:10.220Z,0.00
2023-05-21T03:14:10.103Z,0.00
2023-05-21T03:15:10.135Z,0.00
2023-05-21T03:16:10.194Z,0.00
2023-05-21T03:17:10.816Z,0.00
2023-05-21T03:18:10.147Z,0.00
2023-05-21T03:19:10.157Z,0.00
2023-05-21T03:20:10.109Z,0.00
2023-05-21T03:21:10.077Z,0.00
2023-05-21T03:22:10.077Z,5.62
2023-05-21T03:23:10.064Z,5.62
2023-05-21T03:24:09.995Z,5.62
2023-05-21T03:25:10.027Z,5.62
2023-05-21T03:26:10.021Z,5.62
2023-05-21T03:27:09.986Z,5.62
2023-05-21T03:28:09.999Z,5.62
2023-05-21T03:29:09.992Z,5.62
2023-05-21T03:30:10.781Z,5.62
2023-05-21T03:31:09.959Z,11.25
2023-05-21T03:32:10.012Z,11.25
2023-05-21T03:33:09.951Z,11.25
2023-05-21T03:34:09.919Z,11.25
2023-05-21T03:35:09.922Z,16.88
2023-05-21T03:36:09.946Z,16.88
2023-05-21T03:37:09.909Z,16.88
2023-05-21T03:38:09.891Z,16.88
2023-05-21T03:39:09.934Z,22.50
2023-05-21T03:40:09.891Z,22.50
2023-05-21T03:41:09.910Z,22.50
2023-05-21T03:42:09.904Z,22.50
2023-05-21T03:43:09.947Z,28.12
2023-05-21T03:44:09.906Z,28.12
2023-05-21T03:45:09.862Z,28.12
2023-05-21T03:46:09.918Z,28.12
2023-05-21T04:02:46.128Z,50.62
2023-05-21T04:03:46.220Z,56.25
2023-05-21T04:04:46.161Z,56.25
2023-05-21T04:05:45.993Z,56.25
2023-05-21T04:06:46.000Z,56.25
2023-05-21T04:07:45.984Z,61.88
2023-05-21T04:08:46.033Z,61.88
2023-05-21T04:09:45.982Z,67.50
2023-05-21T04:10:45.992Z,67.50
2023-05-21T04:11:47.127Z,67.50
2023-05-21T04:12:47.135Z,73.12
2023-05-21T04:13:47.144Z,73.12
2023-05-21T04:14:47.129Z,73.12
2023-05-21T04:15:47.147Z,73.12
2023-05-21T04:16:47.095Z,78.75
2023-05-21T04:17:47.185Z,78.75
2023-05-21T04:18:47.202Z,78.75
2023-05-21T04:19:47.108Z,78.75
2023-05-21T04:20:47.114Z,84.38
2023-05-21T04:21:47.082Z,84.38
2023-05-21T04:22:47.037Z,84.38
2023-05-21T04:23:47.085Z,84.38
2023-05-21T04:24:47.035Z,90.00
2023-05-21T04:25:47.212Z,90.00
2023-05-21T04:26:47.010Z,90.00
2023-05-21T04:27:46.985Z,90.00
2023-05-21T04:28:47.013Z,90.00
2023-05-21T04:29:48.467Z,95.62
2023-05-21T04:30:47.036Z,95.62
2023-05-21T04:31:50.467Z,101.25
2023-05-21T04:32:48.046Z,101.25
2023-05-21T04:33:46.988Z,106.88
2023-05-21T04:34:47.773Z,106.88
2023-05-21T04:35:46.968Z,112.50
2023-05-21T04:36:47.682Z,112.50
2023-05-21T04:37:46.914Z,118.12
2023-05-21T04:38:47.617Z,123.75
2023-05-21T04:39:47.031Z,123.75
2023-05-21T04:40:46.905Z,129.38
2023-05-21T04:41:46.921Z,135.00
2023-05-21T04:42:46.898Z,135.00
2023-05-21T04:43:46.864Z,140.62
2023-05-21T04:44:46.888Z,146.25
2023-05-21T04:45:46.893Z,151.88
2023-05-21T04:46:46.866Z,157.50
2023-05-21T04:47:46.896Z,163.12
2023-05-21T04:48:47.849Z,168.75
2023-05-21T04:49:46.812Z,168.75
2023-05-21T04:50:46.917Z,174.38
2023-05-21T04:51:46.834Z,180.00
2023-05-21T04:52:46.833Z,185.62
2023-05-21T04:53:46.891Z,185.62
2023-05-21T04:54:48.249Z,191.25
2023-05-21T04:55:46.774Z,196.88
2023-05-21T04:56:46.758Z,202.50
2023-05-21T04:57:46.756Z,208.12
2023-05-21T04:58:46.773Z,213.75
2023-05-21T04:59:46.784Z,219.38
2023-05-21T05:00:47.005Z,225.00
2023-05-21T05:01:46.786Z,225.00
2023-05-21T05:02:46.855Z,230.62
2023-05-21T05:03:46.732Z,236.25
2023-05-21T05:04:46.767Z,241.88
2023-05-21T05:05:46.721Z,247.50
2023-05-21T05:06:47.292Z,253.12
2023-05-21T05:07:46.706Z,253.12
2023-05-21T05:08:46.728Z,258.75
2023-05-21T05:09:46.790Z,264.38
2023-05-21T05:10:46.786Z,264.38
2023-05-21T05:11:46.665Z,270.00
2023-05-21T05:12:46.661Z,275.62
2023-05-21T05:13:46.673Z,275.62
2023-05-21T05:14:46.684Z,281.25
2023-05-21T05:15:48.697Z,286.88
2023-05-21T05:16:47.717Z,298.12
2023-05-21T05:17:46.669Z,303.75
2023-05-21T05:18:47.408Z,320.62
2023-05-21T05:19:47.330Z,337.50
2023-05-21T05:20:46.670Z,354.38
2023-05-21T05:21:47.336Z,354.38
2023-05-21T05:22:46.584Z,360.00
2023-05-21T05:23:46.580Z,388.12
2023-05-21T05:24:46.568Z,410.62
2023-05-21T05:25:46.554Z,393.75
2023-05-21T05:26:46.610Z,371.25
2023-05-21T05:27:46.583Z,365.62
2023-05-21T05:28:46.548Z,365.62
2023-05-21T05:29:46.510Z,376.88
2023-05-21T05:30:46.736Z,382.50
2023-05-21T05:31:46.538Z,399.38
2023-05-21T05:32:46.545Z,455.62
2023-05-21T05:33:46.543Z,478.12
2023-05-21T05:34:46.484Z,421.88
2023-05-21T05:35:46.540Z,416.25
2023-05-21T05:36:46.477Z,427.50
2023-05-21T05:37:46.470Z,444.38
2023-05-21T05:38:49.263Z,472.50
2023-05-21T05:40:19.199Z,483.75
2023-05-21T05:40:46.475Z,483.75
2023-05-21T05:41:46.393Z,528.75
2023-05-21T05:42:47.430Z,579.38
2023-05-21T05:43:46.421Z,641.25
2023-05-21T05:44:46.823Z,618.75
2023-05-21T05:45:46.403Z,618.75
2023-05-21T05:46:47.359Z,545.62
2023-05-21T05:47:46.425Z,523.12
2023-05-21T05:48:46.416Z,506.25
2023-05-21T05:49:46.388Z,511.88
2023-05-21T05:50:46.344Z,506.25
2023-05-21T05:51:46.385Z,500.62
2023-05-21T05:52:46.382Z,495.00
2023-05-21T05:53:46.386Z,489.38
2023-05-21T05:54:46.420Z,489.38
2023-05-21T05:55:47.474Z,489.38
2023-05-21T05:56:47.123Z,478.12
2023-05-21T05:57:46.285Z,472.50
2023-05-21T05:58:46.622Z,483.75
2023-05-21T05:59:46.372Z,511.88
2023-05-21T06:00:46.262Z,663.75
2023-05-21T06:01:46.460Z,860.62
2023-05-21T06:02:46.348Z,675.00
2023-05-21T06:03:46.837Z,630.00
2023-05-21T06:04:46.319Z,579.38
2023-05-21T06:05:46.237Z,562.50
2023-05-21T06:06:46.251Z,562.50
2023-05-21T06:07:46.316Z,562.50
2023-05-21T06:08:46.270Z,562.50
2023-05-21T06:09:46.247Z,568.12
2023-05-21T06:10:46.775Z,562.50
2023-05-21T06:11:46.196Z,590.62
2023-05-21T06:12:46.246Z,607.50
2023-05-21T06:13:46.260Z,545.62
2023-05-21T06:14:46.176Z,517.50
2023-05-21T06:15:46.278Z,500.62
2023-05-21T06:16:46.230Z,483.75
2023-05-21T06:17:46.251Z,466.88
2023-05-21T06:18:46.648Z,466.88
2023-05-21T06:19:46.165Z,461.25
2023-05-21T06:20:46.477Z,461.25
2023-05-21T06:21:46.988Z,466.88
2023-05-21T06:22:46.129Z,461.25
2023-05-21T06:23:46.623Z,466.88
2023-05-21T06:24:46.086Z,478.12
2023-05-21T06:25:46.119Z,495.00
2023-05-21T06:26:46.086Z,472.50
2023-05-21T06:27:46.103Z,466.88
2023-05-21T06:28:46.138Z,461.25
2023-05-21T06:29:46.064Z,461.25
2023-05-21T06:30:46.067Z,466.88
2023-05-21T06:31:46.078Z,478.12
2023-05-21T06:32:47.140Z,489.38
2023-05-21T06:33:46.216Z,511.88
2023-05-21T06:34:46.087Z,523.12
2023-05-21T06:35:46.023Z,534.38
2023-05-21T06:36:46.033Z,534.38
2023-05-21T06:37:46.037Z,545.62
2023-05-21T06:38:46.022Z,551.25
2023-05-21T06:39:45.984Z,562.50
2023-05-21T06:40:46.014Z,573.75
2023-05-21T06:41:45.989Z,585.00
2023-05-21T06:42:45.953Z,590.62
2023-05-21T06:43:45.959Z,596.25
2023-05-21T06:44:46.004Z,618.75
2023-05-21T06:45:45.986Z,641.25
2023-05-21T06:46:46.969Z,680.62
2023-05-21T06:47:46.034Z,703.12
2023-05-21T06:48:45.943Z,714.38
2023-05-21T06:49:45.956Z,753.75
2023-05-21T06:50:45.935Z,832.50
2023-05-21T06:51:45.952Z,1456.88
2023-05-21T06:52:45.891Z,2469.38
2023-05-21T06:53:45.867Z,2767.50
2023-05-21T06:54:45.881Z,2458.12
2023-05-21T06:55:46.003Z,2081.25
2023-05-21T06:56:45.936Z,1918.12
2023-05-21T06:57:45.833Z,1878.75
2023-05-21T06:58:45.913Z,2407.50
2023-05-21T06:59:45.901Z,2030.62
2023-05-21T07:00:45.927Z,2790.00
2023-05-21T07:01:46.381Z,2728.12
2023-05-21T07:02:46.004Z,2548.12
2023-05-21T07:03:46.669Z,2368.12
2023-05-21T07:04:45.923Z,1935.00
2023-05-21T07:05:45.994Z,1687.50
2023-05-21T07:06:45.915Z,1603.12
2023-05-21T07:07:46.527Z,1563.75
2023-05-21T07:08:45.863Z,1496.25
2023-05-21T07:09:45.833Z,1389.38
2023-05-21T07:10:45.828Z,1276.88
2023-05-21T07:11:45.746Z,1333.12
2023-05-21T07:12:45.762Z,1293.75
2023-05-21T07:13:45.801Z,1237.50
2023-05-21T07:14:46.376Z,1445.62
2023-05-21T07:15:45.800Z,1597.50
2023-05-21T07:16:45.819Z,2250.00
2023-05-21T07:17:45.809Z,2047.50
2023-05-21T07:18:45.858Z,2098.12
2023-05-21T07:19:45.758Z,1704.38
2023-05-21T07:20:45.787Z,1636.88
2023-05-21T07:21:45.791Z,1839.38
2023-05-21T07:22:46.412Z,1839.38
2023-05-21T07:23:45.735Z,2036.25
2023-05-21T07:24:45.661Z,2126.25
2023-05-21T07:25:45.681Z,1974.38
2023-05-21T07:26:45.680Z,1906.88
2023-05-21T07:27:45.689Z,1833.75
2023-05-21T07:28:45.655Z,1698.75
2023-05-21T07:29:45.641Z,1715.62
2023-05-21T07:30:45.853Z,1518.75
2023-05-21T07:31:45.672Z,1558.12
2023-05-21T07:32:46.537Z,1541.25
2023-05-21T07:33:45.647Z,1788.75
2023-05-21T07:34:45.644Z,2103.75
2023-05-21T07:35:46.474Z,1771.88
2023-05-21T07:36:45.562Z,1783.12
2023-05-21T07:37:46.429Z,1755.00
2023-05-21T07:38:45.559Z,1608.75
2023-05-21T07:39:45.593Z,1501.88
2023-05-21T07:40:45.598Z,1468.12
2023-05-21T07:41:45.566Z,1400.62
2023-05-21T07:42:45.558Z,1344.38
2023-05-21T07:43:45.712Z,1411.88
2023-05-21T07:44:45.597Z,1490.62
2023-05-21T07:45:45.560Z,1642.50
2023-05-21T07:46:45.765Z,1963.12
2023-05-21T07:47:45.592Z,2086.88
2023-05-21T07:48:47.397Z,2401.88
2023-05-21T07:49:45.457Z,2643.75
2023-05-21T07:50:45.443Z,2778.75
2023-05-21T07:51:45.462Z,2806.88
2023-05-21T07:52:45.566Z,2761.88
2023-05-21T07:53:45.417Z,2587.50
2023-05-21T07:54:45.446Z,2356.88
2023-05-21T07:55:45.422Z,2362.50
2023-05-21T07:56:45.385Z,2233.12
2023-05-21T07:57:45.435Z,2497.50
2023-05-21T07:58:45.368Z,2351.25
2023-05-21T07:59:45.386Z,2497.50
2023-05-21T08:00:45.364Z,2368.12
2023-05-21T08:01:45.356Z,2272.50
2023-05-21T08:02:45.468Z,2289.38
2023-05-21T08:03:45.446Z,2250.00
2023-05-21T08:04:45.441Z,2064.38
2023-05-21T08:05:45.359Z,1811.25
2023-05-21T08:06:45.360Z,1507.50
2023-05-21T08:07:45.377Z,1417.50
2023-05-21T08:08:45.325Z,1372.50
2023-05-21T08:09:45.326Z,1372.50
2023-05-21T08:10:45.306Z,1406.25
2023-05-21T08:11:45.306Z,1383.75
2023-05-21T08:12:45.339Z,1361.25
2023-05-21T08:13:45.314Z,1327.50
2023-05-21T08:14:45.283Z,1305.00
2023-05-21T08:15:45.286Z,1305.00
2023-05-21T08:16:45.368Z,1333.12
2023-05-21T08:17:45.363Z,1361.25
2023-05-21T08:18:45.279Z,1417.50
2023-05-21T08:19:45.251Z,1496.25
2023-05-21T08:20:45.254Z,1501.88
2023-05-21T08:21:45.283Z,1518.75
2023-05-21T08:22:45.268Z,1575.00
2023-05-21T08:23:46.321Z,1575.00
2023-05-21T08:24:45.259Z,1563.75
2023-05-21T08:25:45.285Z,1501.88
2023-05-21T08:26:45.161Z,1563.75
2023-05-21T08:27:45.191Z,1642.50
2023-05-21T08:28:45.145Z,1524.38
2023-05-21T08:29:45.198Z,1496.25
2023-05-21T08:30:45.152Z,1530.00
2023-05-21T08:31:45.193Z,1535.62
2023-05-21T08:32:45.218Z,1485.00
2023-05-21T08:33:45.435Z,1417.50
2023-05-21T08:34:45.165Z,1378.12
2023-05-21T08:35:45.107Z,1321.88
2023-05-21T08:37:18.080Z,1305.00
2023-05-21T08:37:45.156Z,1276.88
2023-05-21T08:38:45.108Z,1265.62
2023-05-21T08:39:45.095Z,1288.12
2023-05-21T08:40:45.077Z,1265.62
2023-05-21T08:41:45.078Z,1254.38
2023-05-21T08:42:45.098Z,1243.12
2023-05-21T08:43:45.061Z,1198.12
2023-05-21T08:44:45.100Z,1203.75
2023-05-21T08:45:45.043Z,1203.75
2023-05-21T08:46:45.028Z,1288.12
2023-05-21T08:47:45.042Z,1288.12
2023-05-21T08:48:45.035Z,1282.50
2023-05-21T08:50:17.900Z,1282.50
2023-05-21T08:50:45.000Z,1321.88
2023-05-21T08:51:45.948Z,1378.12
2023-05-21T08:52:44.959Z,1383.75
2023-05-21T08:53:44.989Z,1389.38
2023-05-21T08:54:45.022Z,1423.12
2023-05-21T08:55:44.996Z,1445.62
2023-05-21T08:56:45.426Z,1456.88
2023-05-21T08:57:44.975Z,1485.00
2023-05-21T08:58:44.952Z,1496.25
2023-05-21T08:59:44.932Z,1524.38
2023-05-21T09:00:44.899Z,1530.00
2023-05-21T09:01:46.051Z,1530.00
2023-05-21T09:02:44.953Z,1541.25
2023-05-21T09:03:44.945Z,1569.38
2023-05-21T09:04:44.961Z,1569.38
2023-05-21T09:05:44.887Z,1558.12
2023-05-21T09:06:44.884Z,1563.75
2023-05-21T09:07:44.888Z,1535.62
2023-05-21T09:08:44.873Z,1513.12
2023-05-21T09:09:44.887Z,1479.38
2023-05-21T09:10:44.887Z,1423.12
2023-05-21T09:11:44.844Z,1361.25
2023-05-21T09:12:44.838Z,1276.88
2023-05-21T09:13:44.833Z,1265.62
2023-05-21T09:14:44.859Z,1192.50
2023-05-21T09:15:44.778Z,1181.25
2023-05-21T09:16:44.821Z,1203.75
2023-05-21T09:17:44.845Z,1248.75
2023-05-21T09:18:44.803Z,1243.12
2023-05-21T09:19:44.784Z,1282.50
2023-05-21T09:20:44.758Z,1237.50
2023-05-21T09:21:44.800Z,1209.38
2023-05-21T09:22:44.777Z,1198.12
2023-05-21T09:23:44.761Z,1192.50
2023-05-21T09:24:44.838Z,1248.75
2023-05-21T09:25:44.748Z,1288.12
2023-05-21T09:26:44.744Z,1288.12
2023-05-21T09:27:44.732Z,1271.25
2023-05-21T09:28:44.735Z,1316.25
2023-05-21T09:29:44.713Z,1271.25
2023-05-21T09:30:44.764Z,1310.62
2023-05-21T09:31:44.808Z,1316.25
2023-05-21T09:32:44.704Z,1316.25
2023-05-21T09:33:44.682Z,1288.12
2023-05-21T09:34:44.651Z,1237.50
2023-05-21T09:35:44.703Z,1147.50
2023-05-21T09:36:44.673Z,1119.38
2023-05-21T09:37:44.695Z,1102.50
2023-05-21T09:38:44.710Z,1096.88
2023-05-21T09:39:44.637Z,1074.38
2023-05-21T09:40:44.693Z,1108.12
2023-05-21T09:41:44.639Z,1085.62
2023-05-21T09:42:44.664Z,1051.88
2023-05-21T09:43:44.666Z,1006.88
2023-05-21T09:44:44.626Z,978.75
2023-05-21T09:45:44.628Z,961.88
2023-05-21T09:46:44.663Z,956.25
2023-05-21T09:47:44.683Z,945.00
2023-05-21T09:48:44.560Z,939.38
2023-05-21T09:49:44.540Z,939.38
2023-05-21T09:50:44.551Z,939.38
2023-05-21T09:51:44.560Z,939.38
2023-05-21T09:52:44.580Z,939.38
2023-05-21T09:53:44.569Z,911.25
2023-05-21T09:54:45.415Z,894.38
2023-05-21T09:55:44.559Z,916.88
2023-05-21T09:56:44.577Z,928.12
2023-05-21T09:57:44.518Z,928.12
2023-05-21T09:58:44.513Z,939.38
2023-05-21T09:59:44.545Z,945.00
2023-05-21T10:00:44.530Z,995.62
2023-05-21T10:01:44.527Z,1012.50
2023-05-21T10:02:44.595Z,1029.38
2023-05-21T10:03:44.520Z,1040.62
2023-05-21T10:04:44.554Z,1063.12
2023-05-21T10:05:44.454Z,1136.25
2023-05-21T10:06:44.478Z,1119.38
2023-05-21T10:07:44.475Z,1119.38
2023-05-21T10:08:44.427Z,1108.12
2023-05-21T10:09:44.473Z,1096.88
2023-05-21T10:10:44.433Z,1091.25
2023-05-21T10:11:44.444Z,1085.62
2023-05-21T10:12:44.402Z,1080.00
2023-05-21T10:13:44.388Z,1068.75
2023-05-21T10:14:44.393Z,1057.50
2023-05-21T10:15:44.445Z,1085.62
2023-05-21T10:16:44.578Z,1080.00
2023-05-21T10:17:44.444Z,1096.88
2023-05-21T10:18:44.431Z,1085.62
2023-05-21T10:19:44.352Z,1074.38
2023-05-21T10:20:44.372Z,1074.38
2023-05-21T10:21:44.355Z,1085.62
2023-05-21T10:22:44.324Z,1102.50
2023-05-21T10:23:45.337Z,1096.88
2023-05-21T10:24:44.342Z,1096.88
2023-05-21T10:25:44.448Z,1074.38
2023-05-21T10:26:44.293Z,1051.88
2023-05-21T10:27:44.308Z,1046.25
2023-05-21T10:28:44.361Z,1035.00
2023-05-21T10:29:44.329Z,1035.00
2023-05-21T10:30:44.311Z,1006.88
2023-05-21T10:31:44.305Z,1012.50
2023-05-21T10:32:44.380Z,1006.88
2023-05-21T10:33:44.255Z,984.38
2023-05-21T10:34:44.245Z,961.88
2023-05-21T10:35:44.245Z,956.25
2023-05-21T10:36:44.274Z,939.38
2023-05-21T10:37:44.210Z,916.88
2023-05-21T10:38:44.211Z,928.12
2023-05-21T10:39:44.226Z,945.00
2023-05-21T10:40:44.198Z,928.12
2023-05-21T10:41:44.189Z,928.12
2023-05-21T10:42:44.199Z,922.50
2023-05-21T10:43:44.190Z,916.88
2023-05-21T10:44:44.189Z,916.88
2023-05-21T10:45:44.249Z,922.50
2023-05-21T10:46:44.221Z,916.88
2023-05-21T10:47:44.196Z,916.88
2023-05-21T10:48:44.189Z,900.00
2023-05-21T10:49:44.167Z,883.12
2023-05-21T10:50:44.125Z,916.88
2023-05-21T10:51:44.155Z,922.50
2023-05-21T10:52:44.126Z,911.25
2023-05-21T10:53:44.164Z,905.62
2023-05-21T10:54:44.101Z,945.00
2023-05-21T10:55:44.070Z,916.88
2023-05-21T10:56:44.172Z,916.88
2023-05-21T10:57:44.166Z,900.00
2023-05-21T10:58:46.972Z,911.25
2023-05-21T10:59:44.105Z,928.12
2023-05-21T11:00:44.081Z,933.75
2023-05-21T11:01:44.157Z,922.50
2023-05-21T11:02:44.198Z,911.25
2023-05-21T11:03:44.201Z,916.88
2023-05-21T11:04:44.045Z,810.00
2023-05-21T11:05:44.044Z,759.38
2023-05-21T11:06:44.086Z,933.75
2023-05-21T11:07:44.000Z,928.12
2023-05-21T11:08:44.020Z,933.75
2023-05-21T11:09:43.997Z,933.75
2023-05-21T11:10:43.988Z,939.38
2023-05-21T11:11:44.051Z,911.25
2023-05-21T11:12:43.996Z,905.62
2023-05-21T11:13:44.011Z,888.75
2023-05-21T11:14:43.982Z,871.88
2023-05-21T11:15:43.998Z,866.25
2023-05-21T11:16:43.969Z,866.25
2023-05-21T11:17:44.003Z,855.00
2023-05-21T11:18:43.940Z,849.38
2023-05-21T11:19:44.086Z,855.00
2023-05-21T11:20:43.909Z,855.00
2023-05-21T11:21:43.981Z,821.25
2023-05-21T11:22:44.022Z,826.88
2023-05-21T11:23:43.894Z,832.50
2023-05-21T11:24:43.956Z,832.50
2023-05-21T11:25:43.899Z,815.62
2023-05-21T11:26:43.894Z,804.38
2023-05-21T11:27:43.906Z,793.12
2023-05-21T11:28:43.871Z,787.50
2023-05-21T11:29:43.889Z,781.88
2023-05-21T11:30:43.974Z,787.50
2023-05-21T11:31:43.996Z,821.25
2023-05-21T11:32:43.898Z,838.12
2023-05-21T11:33:43.811Z,838.12
2023-05-21T11:34:43.890Z,821.25
2023-05-21T11:35:43.818Z,821.25
2023-05-21T11:36:43.813Z,793.12
2023-05-21T11:37:43.877Z,770.62
2023-05-21T11:38:43.831Z,776.25
2023-05-21T11:39:43.862Z,776.25
2023-05-21T11:40:43.799Z,770.62
2023-05-21T11:41:43.812Z,742.50
2023-05-21T11:42:43.763Z,759.38
2023-05-21T11:43:43.784Z,742.50
2023-05-21T11:44:44.791Z,748.12
2023-05-21T11:45:43.755Z,736.88
2023-05-21T11:46:43.761Z,708.75
2023-05-21T11:47:43.781Z,720.00
2023-05-21T11:48:43.741Z,720.00
2023-05-21T11:49:43.760Z,691.88
2023-05-21T11:50:43.730Z,714.38
2023-05-21T11:51:43.709Z,720.00
2023-05-21T11:52:43.683Z,725.62
2023-05-21T11:53:44.292Z,731.25
2023-05-21T11:54:44.735Z,736.88
2023-05-21T11:55:43.925Z,753.75
2023-05-21T11:56:43.714Z,748.12
2023-05-21T11:57:43.702Z,753.75
2023-05-21T11:58:43.679Z,753.75
2023-05-21T11:59:43.653Z,748.12
2023-05-21T12:00:43.689Z,759.38
2023-05-21T12:01:43.684Z,770.62
2023-05-21T12:02:43.660Z,776.25
2023-05-21T12:03:43.749Z,787.50
2023-05-21T12:04:43.613Z,787.50
2023-05-21T12:05:43.652Z,793.12
2023-05-21T12:06:43.616Z,787.50
2023-05-21T12:07:43.585Z,770.62
2023-05-21T12:08:43.570Z,742.50
2023-05-21T12:09:43.598Z,725.62
2023-05-21T12:10:45.035Z,708.75
2023-05-21T12:11:44.556Z,703.12
2023-05-21T12:12:54.916Z,675.00
2023-05-21T12:13:45.567Z,652.50
2023-05-21T12:14:44.537Z,652.50
2023-05-21T12:15:43.583Z,652.50
2023-05-21T12:16:43.629Z,680.62
2023-05-21T12:17:43.560Z,646.88
2023-05-21T12:18:43.556Z,635.62
2023-05-21T12:19:43.519Z,641.25
2023-05-21T12:20:43.495Z,624.38
2023-05-21T12:21:43.530Z,630.00
2023-05-21T12:22:43.536Z,635.62
2023-05-21T12:23:44.507Z,646.88
2023-05-21T12:24:43.507Z,652.50
2023-05-21T12:25:43.472Z,646.88
2023-05-21T12:26:43.516Z,675.00
2023-05-21T12:27:43.487Z,675.00
2023-05-21T12:28:43.479Z,663.75
2023-05-21T12:29:43.458Z,658.12
2023-05-21T12:30:43.438Z,641.25
2023-05-21T12:31:43.524Z,658.12
2023-05-21T12:32:44.226Z,658.12
2023-05-21T12:33:43.454Z,658.12
2023-05-21T12:34:43.420Z,658.12
2023-05-21T12:35:43.410Z,646.88
2023-05-21T12:36:43.370Z,652.50
2023-05-21T12:37:43.420Z,686.25
2023-05-21T12:38:43.483Z,703.12
2023-05-21T12:39:43.508Z,708.75
2023-05-21T12:40:43.467Z,691.88
2023-05-21T12:41:43.402Z,753.75
2023-05-21T12:42:43.361Z,759.38
2023-05-21T12:43:43.376Z,736.88
2023-05-21T12:44:43.400Z,742.50
2023-05-21T12:45:43.471Z,736.88
2023-05-21T12:46:43.412Z,691.88
2023-05-21T12:47:43.346Z,759.38
2023-05-21T12:48:43.368Z,731.25
2023-05-21T12:49:43.290Z,658.12
2023-05-21T12:50:43.363Z,585.00
2023-05-21T12:51:43.333Z,579.38